Time Latitude Longitude Accuracy (66% radius in meters) Altitude (meters) Speed (km/hour) Bearing (degrees) Battery (%) GPS flag
06:50:40 57.205187 60.116692 0 0 0 0 1 delete
06:50:39 57.205182 60.116667 0 0 0 0 1 delete
06:50:38 57.205182 60.116652 0 0 0 0 1 delete
06:50:37 57.205182 60.116628 0 0 0 0 1 delete
06:50:36 57.205182 60.116608 0 0 0 0 1 delete
06:50:35 57.205183 60.116587 0 0 0 0 1 delete
06:50:34 57.205182 60.116563 0 0 0 0 1 delete
06:50:33 57.205182 60.116545 0 0 0 0 1 delete
06:50:32 57.205183 60.116520 0 0 0 0 1 delete
06:50:31 57.205183 60.116500 0 0 0 0 1 delete
06:50:30 57.205188 60.116483 0 0 0 0 1 delete
06:50:29 57.205187 60.116457 0 0 0 0 1 delete
06:50:28 57.205183 60.116428 0 0 0 0 1 delete
06:50:27 57.205183 60.116415 0 0 0 0 1 delete
06:50:26 57.205180 60.116393 0 0 0 0 1 delete
06:50:25 57.205178 60.116372 0 0 0 0 1 delete
06:50:24 57.205175 60.116352 0 0 0 0 1 delete
06:50:23 57.205173 60.116323 0 0 0 0 1 delete
06:50:22 57.205172 60.116288 0 0 0 0 1 delete
06:50:21 57.205172 60.116268 0 0 0 0 1 delete
06:50:20 57.205170 60.116243 0 0 0 0 1 delete
06:50:19 57.205170 60.116228 0 0 0 0 1 delete
06:50:18 57.205168 60.116205 0 0 0 0 1 delete
06:50:17 57.205167 60.116172 0 0 0 0 1 delete
06:50:16 57.205163 60.116152 0 0 0 0 1 delete
06:50:15 57.205163 60.116128 0 0 0 0 1 delete
06:50:14 57.205165 60.116100 0 0 0 0 1 delete
06:50:13 57.205167 60.116075 0 0 0 0 1 delete
06:50:12 57.205168 60.116050 0 0 0 0 1 delete
06:50:11 57.205173 60.116023 0 0 0 0 1 delete
06:50:10 57.205180 60.115992 0 0 0 0 1 delete
06:50:09 57.205190 60.115948 0 0 0 0 1 delete
06:50:08 57.205193 60.115918 0 0 0 0 1 delete
06:50:07 57.205193 60.115895 0 0 0 0 1 delete
06:50:06 57.205195 60.115865 0 0 0 0 1 delete
06:50:05 57.205200 60.115833 0 0 0 0 1 delete
06:50:04 57.205203 60.115807 0 0 0 0 1 delete
06:50:03 57.205203 60.115772 0 0 0 0 1 delete
06:50:02 57.205207 60.115747 0 0 0 0 1 delete
06:50:01 57.205210 60.115715 0 0 0 0 1 delete
06:50:00 57.205217 60.115680 0 0 0 0 1 delete
06:49:59 57.205218 60.115657 0 0 0 0 1 delete
06:49:58 57.205222 60.115627 0 0 0 0 1 delete
06:49:57 57.205233 60.115593 0 0 0 0 1 delete
06:49:56 57.205242 60.115567 0 0 0 0 1 delete
06:49:55 57.205255 60.115528 0 0 0 0 1 delete
06:49:54 57.205275 60.115487 0 0 0 0 1 delete
06:49:53 57.205287 60.115460 0 0 0 0 1 delete
06:49:52 57.205292 60.115435 0 0 0 0 1 delete
06:49:51 57.205298 60.115408 0 0 0 0 1 delete